Hiei — JD3800 — position and weather

sailwx.info

Track history (hours):
 
Tides and Currents Weather Stations Pressure Air Temp Water Temp Dewpoint Dewpoint Depression Visibility Wind Speed Wind Dir Waves Ship Positions

Hiei

Last reported at 2018-Feb-23 01:56 UTC. Time now 2018-Feb-24 06:16 UTC.
Position N 34°31' E 135°24'.

Length 36 m; draft 3.8 m.

Type: Tug. MMSI: 431006214.

Date/timePositionNaut miles runAvg speedWind from/ knotsBaromVisibWave heightAir tempDewpointWater temp
2018-Feb-23 01:56N 34°31' E 135°24'3 6.8
2018-Feb-23 01:30N 34°33' E 135°22'3 5.6
2018-Feb-23 01:00N 34°33' E 135°25'0 0.3
2018-Feb-23 00:29N 34°34' E 135°25'0 0.1
2018-Feb-23 00:00N 34°34' E 135°25'0 0.0
2018-Feb-22 23:30N 34°34' E 135°25'0 0.0
2018-Feb-22 23:00N 34°34' E 135°25'0 0.0
2018-Feb-22 22:30N 34°34' E 135°25'0 0.1
2018-Feb-22 22:00N 34°33' E 135°25'0 0.1
2018-Feb-22 21:30N 34°33' E 135°25'0 0.0
2018-Feb-22 21:00N 34°34' E 135°25'0 0.0
2018-Feb-22 20:30N 34°34' E 135°25'0 0.0
2018-Feb-22 20:01N 34°34' E 135°25'0 0.0
2018-Feb-22 19:30N 34°34' E 135°25'0 0.0
2018-Feb-22 19:00N 34°34' E 135°25'0 0.0
2018-Feb-22 18:30N 34°34' E 135°25'0 0.0
2018-Feb-22 18:00N 34°34' E 135°25'0 0.0
2018-Feb-22 17:30N 34°34' E 135°25'0 0.0
2018-Feb-22 17:00N 34°34' E 135°25'0 0.0
2018-Feb-22 16:30N 34°34' E 135°25'0 0.0
2018-Feb-22 16:00N 34°34' E 135°25'0 0.0
2018-Feb-22 15:30N 34°34' E 135°25'0 0.1
2018-Feb-22 15:00N 34°33' E 135°25'0 0.0
2018-Feb-22 14:30N 34°33' E 135°25'0 0.0
2018-Feb-22 14:01N 34°34' E 135°25'0 0.0
2018-Feb-22 13:30N 34°34' E 135°25'0 0.0
2018-Feb-22 13:00N 34°34' E 135°25'0 0.0
2018-Feb-22 12:30N 34°34' E 135°25'0 0.0
2018-Feb-22 12:00N 34°33' E 135°25'0 0.0
2018-Feb-22 11:30N 34°33' E 135°25'0 0.0
2018-Feb-22 11:00N 34°33' E 135°25'0 0.0
2018-Feb-22 10:30N 34°33' E 135°25'0 0.0
2018-Feb-22 10:00N 34°34' E 135°25'0 0.0
2018-Feb-22 09:30N 34°34' E 135°25'0 0.1
2018-Feb-22 09:00N 34°33' E 135°25'0 0.1
2018-Feb-22 08:30N 34°34' E 135°25'0 0.0
2018-Feb-22 08:00N 34°33' E 135°25'0 0.1
2018-Feb-22 07:30N 34°33' E 135°25'0 0.2
2018-Feb-22 07:00N 34°34' E 135°25'0 0.1
2018-Feb-22 06:30N 34°33' E 135°25'0 0.2
2018-Feb-22 06:00N 34°33' E 135°25'0 0.1
2018-Feb-22 05:30N 34°33' E 135°25'0 0.2
2018-Feb-22 05:00N 34°34' E 135°25'0 0.3
2018-Feb-22 04:30N 34°34' E 135°25'0 0.0
2018-Feb-22 04:01N 34°34' E 135°25'0 0.1
2018-Feb-22 03:30N 34°34' E 135°25'0 0.2
2018-Feb-22 03:00N 34°33' E 135°25'4 7.3
2018-Feb-22 02:30N 34°33' E 135°21'1 1.2
2018-Feb-22 01:58N 34°34' E 135°21'0 0.7
2018-Feb-22 01:30N 34°34' E 135°21'  
2018-Feb-16 06:25N 34°31' E 135°24'0 0.7
2018-Feb-16 05:59N 34°31' E 135°24'0 0.0
2018-Feb-16 05:29N 34°31' E 135°24'0 0.0
2018-Feb-16 05:00N 34°31' E 135°24'3 6.1
2018-Feb-16 04:30N 34°33' E 135°21'2 4.4
2018-Feb-16 04:00N 34°33' E 135°24'0 0.9
2018-Feb-16 03:30N 34°33' E 135°24'0 0.2
2018-Feb-16 03:01N 34°33' E 135°24'0 0.1
2018-Feb-16 02:31N 34°33' E 135°24'0 0.3
2018-Feb-16 02:00N 34°33' E 135°24'0 0.0
2018-Feb-16 01:31N 34°33' E 135°24'0 0.2
2018-Feb-16 01:00N 34°33' E 135°24'0 0.1
2018-Feb-16 00:30N 34°33' E 135°24'0 0.0
2018-Feb-16 00:00N 34°33' E 135°24'0 0.0
2018-Feb-15 23:31N 34°33' E 135°24'0 0.1
2018-Feb-15 23:00N 34°33' E 135°24'0 0.1
2018-Feb-15 22:30N 34°33' E 135°24'0 0.0
2018-Feb-15 22:01N 34°33' E 135°24'0 0.0
2018-Feb-15 21:30N 34°33' E 135°24'0 0.1
2018-Feb-15 21:01N 34°33' E 135°24'0 0.0
2018-Feb-15 20:30N 34°33' E 135°24'0 0.0
2018-Feb-15 20:00N 34°33' E 135°24'0 0.0
2018-Feb-15 19:30N 34°33' E 135°24'0 0.0
2018-Feb-15 19:01N 34°33' E 135°24'0 0.0
2018-Feb-15 18:31N 34°33' E 135°24'0 0.0
2018-Feb-15 18:01N 34°33' E 135°24'0 0.0
2018-Feb-15 17:30N 34°33' E 135°24'0 0.0
2018-Feb-15 17:00N 34°33' E 135°24'0 0.0
2018-Feb-15 16:30N 34°33' E 135°24'0 0.0
2018-Feb-15 16:01N 34°33' E 135°24'0 0.0
2018-Feb-15 15:30N 34°33' E 135°24'0 0.0
2018-Feb-15 15:00N 34°33' E 135°24'0 0.0
2018-Feb-15 14:30N 34°33' E 135°24'0 0.0
2018-Feb-15 14:00N 34°33' E 135°24'0 0.0
2018-Feb-15 13:30N 34°33' E 135°24'0 0.0
2018-Feb-15 13:00N 34°33' E 135°24'0 0.0
2018-Feb-15 12:30N 34°33' E 135°24'0 0.0
2018-Feb-15 12:01N 34°33' E 135°24'0 0.0
2018-Feb-15 11:30N 34°33' E 135°24'0 0.0
2018-Feb-15 11:00N 34°33' E 135°24'0 0.0
2018-Feb-15 10:30N 34°33' E 135°24'0 0.0
2018-Feb-15 10:00N 34°33' E 135°24'0 0.0
2018-Feb-15 09:30N 34°33' E 135°24'0 0.0
2018-Feb-15 09:01N 34°33' E 135°24'0 0.0
2018-Feb-15 08:30N 34°33' E 135°24'0 0.0
2018-Feb-15 08:00N 34°33' E 135°24'0 0.0
2018-Feb-15 07:30N 34°33' E 135°24'0 0.0
2018-Feb-15 07:01N 34°33' E 135°24'0 0.0
2018-Feb-15 06:31N 34°33' E 135°24'0 0.1
2018-Feb-15 06:00N 34°33' E 135°24'0 0.1
2018-Feb-15 05:30N 34°33' E 135°24'0 0.0
2018-Feb-15 05:00N 34°33' E 135°24'0 0.1
2018-Feb-15 04:30N 34°33' E 135°24'0 0.1
2018-Feb-15 04:00N 34°33' E 135°24'0 0.1
2018-Feb-15 03:30N 34°33' E 135°24'0 0.1
2018-Feb-15 03:00N 34°33' E 135°24'0 0.2
2018-Feb-15 02:30N 34°33' E 135°24'0 0.3
2018-Feb-15 02:00N 34°33' E 135°24'0 0.5
2018-Feb-15 01:30N 34°33' E 135°24'0 0.0
2018-Feb-15 01:00N 34°33' E 135°24'0 0.1
2018-Feb-15 00:30N 34°33' E 135°24'0 0.8
2018-Feb-15 00:00N 34°33' E 135°24'5 0.2
2018-Feb-14 02:01N 34°39' E 135°24'0 0.0
2018-Feb-14 02:00N 34°39' E 135°24'  
Track history (hours):
 
Tides and Currents Weather Stations Pressure Air Temp Water Temp Dewpoint Dewpoint Depression Visibility Wind Speed Wind Dir Waves Ship Positions

Hiei

Last reported at 2018-Feb-23 01:56 UTC. Time now 2018-Feb-24 06:16 UTC.
Position N 34°31' E 135°24'.

Length 36 m; draft 3.8 m.

Type: Tug. MMSI: 431006214.

Date/timePositionNaut miles runAvg speedWind from/ knotsBaromVisibWave heightAir tempDewpointWater temp
2018-Feb-23 01:56N 34°31' E 135°24'3 6.8
2018-Feb-23 01:30N 34°33' E 135°22'3 5.6
2018-Feb-23 01:00N 34°33' E 135°25'0 0.3
2018-Feb-23 00:29N 34°34' E 135°25'0 0.1
2018-Feb-23 00:00N 34°34' E 135°25'0 0.0
2018-Feb-22 23:30N 34°34' E 135°25'0 0.0
2018-Feb-22 23:00N 34°34' E 135°25'0 0.0
2018-Feb-22 22:30N 34°34' E 135°25'0 0.1
2018-Feb-22 22:00N 34°33' E 135°25'0 0.1
2018-Feb-22 21:30N 34°33' E 135°25'0 0.0
2018-Feb-22 21:00N 34°34' E 135°25'0 0.0
2018-Feb-22 20:30N 34°34' E 135°25'0 0.0
2018-Feb-22 20:01N 34°34' E 135°25'0 0.0
2018-Feb-22 19:30N 34°34' E 135°25'0 0.0
2018-Feb-22 19:00N 34°34' E 135°25'0 0.0
2018-Feb-22 18:30N 34°34' E 135°25'0 0.0
2018-Feb-22 18:00N 34°34' E 135°25'0 0.0
2018-Feb-22 17:30N 34°34' E 135°25'0 0.0
2018-Feb-22 17:00N 34°34' E 135°25'0 0.0
2018-Feb-22 16:30N 34°34' E 135°25'0 0.0
2018-Feb-22 16:00N 34°34' E 135°25'0 0.0
2018-Feb-22 15:30N 34°34' E 135°25'0 0.1
2018-Feb-22 15:00N 34°33' E 135°25'0 0.0
2018-Feb-22 14:30N 34°33' E 135°25'0 0.0
2018-Feb-22 14:01N 34°34' E 135°25'0 0.0
2018-Feb-22 13:30N 34°34' E 135°25'0 0.0
2018-Feb-22 13:00N 34°34' E 135°25'0 0.0
2018-Feb-22 12:30N 34°34' E 135°25'0 0.0
2018-Feb-22 12:00N 34°33' E 135°25'0 0.0
2018-Feb-22 11:30N 34°33' E 135°25'0 0.0
2018-Feb-22 11:00N 34°33' E 135°25'0 0.0
2018-Feb-22 10:30N 34°33' E 135°25'0 0.0
2018-Feb-22 10:00N 34°34' E 135°25'0 0.0
2018-Feb-22 09:30N 34°34' E 135°25'0 0.1
2018-Feb-22 09:00N 34°33' E 135°25'0 0.1
2018-Feb-22 08:30N 34°34' E 135°25'0 0.0
2018-Feb-22 08:00N 34°33' E 135°25'0 0.1
2018-Feb-22 07:30N 34°33' E 135°25'0 0.2
2018-Feb-22 07:00N 34°34' E 135°25'0 0.1
2018-Feb-22 06:30N 34°33' E 135°25'0 0.2
2018-Feb-22 06:00N 34°33' E 135°25'0 0.1
2018-Feb-22 05:30N 34°33' E 135°25'0 0.2
2018-Feb-22 05:00N 34°34' E 135°25'0 0.3
2018-Feb-22 04:30N 34°34' E 135°25'0 0.0
2018-Feb-22 04:01N 34°34' E 135°25'0 0.1
2018-Feb-22 03:30N 34°34' E 135°25'0 0.2
2018-Feb-22 03:00N 34°33' E 135°25'4 7.3
2018-Feb-22 02:30N 34°33' E 135°21'1 1.2
2018-Feb-22 01:58N 34°34' E 135°21'0 0.7
2018-Feb-22 01:30N 34°34' E 135°21'  
2018-Feb-16 06:25N 34°31' E 135°24'0 0.7
2018-Feb-16 05:59N 34°31' E 135°24'0 0.0
2018-Feb-16 05:29N 34°31' E 135°24'0 0.0
2018-Feb-16 05:00N 34°31' E 135°24'3 6.1
2018-Feb-16 04:30N 34°33' E 135°21'2 4.4
2018-Feb-16 04:00N 34°33' E 135°24'0 0.9
2018-Feb-16 03:30N 34°33' E 135°24'0 0.2
2018-Feb-16 03:01N 34°33' E 135°24'0 0.1
2018-Feb-16 02:31N 34°33' E 135°24'0 0.3
2018-Feb-16 02:00N 34°33' E 135°24'0 0.0
2018-Feb-16 01:31N 34°33' E 135°24'0 0.2
2018-Feb-16 01:00N 34°33' E 135°24'0 0.1
2018-Feb-16 00:30N 34°33' E 135°24'0 0.0
2018-Feb-16 00:00N 34°33' E 135°24'0 0.0
2018-Feb-15 23:31N 34°33' E 135°24'0 0.1
2018-Feb-15 23:00N 34°33' E 135°24'0 0.1
2018-Feb-15 22:30N 34°33' E 135°24'0 0.0
2018-Feb-15 22:01N 34°33' E 135°24'0 0.0
2018-Feb-15 21:30N 34°33' E 135°24'0 0.1
2018-Feb-15 21:01N 34°33' E 135°24'0 0.0
2018-Feb-15 20:30N 34°33' E 135°24'0 0.0
2018-Feb-15 20:00N 34°33' E 135°24'0 0.0
2018-Feb-15 19:30N 34°33' E 135°24'0 0.0
2018-Feb-15 19:01N 34°33' E 135°24'0 0.0
2018-Feb-15 18:31N 34°33' E 135°24'0 0.0
2018-Feb-15 18:01N 34°33' E 135°24'0 0.0
2018-Feb-15 17:30N 34°33' E 135°24'0 0.0
2018-Feb-15 17:00N 34°33' E 135°24'0 0.0
2018-Feb-15 16:30N 34°33' E 135°24'0 0.0
2018-Feb-15 16:01N 34°33' E 135°24'0 0.0
2018-Feb-15 15:30N 34°33' E 135°24'0 0.0
2018-Feb-15 15:00N 34°33' E 135°24'0 0.0
2018-Feb-15 14:30N 34°33' E 135°24'0 0.0
2018-Feb-15 14:00N 34°33' E 135°24'0 0.0
2018-Feb-15 13:30N 34°33' E 135°24'0 0.0
2018-Feb-15 13:00N 34°33' E 135°24'0 0.0
2018-Feb-15 12:30N 34°33' E 135°24'0 0.0
2018-Feb-15 12:01N 34°33' E 135°24'0 0.0
2018-Feb-15 11:30N 34°33' E 135°24'0 0.0
2018-Feb-15 11:00N 34°33' E 135°24'0 0.0
2018-Feb-15 10:30N 34°33' E 135°24'0 0.0
2018-Feb-15 10:00N 34°33' E 135°24'0 0.0
2018-Feb-15 09:30N 34°33' E 135°24'0 0.0
2018-Feb-15 09:01N 34°33' E 135°24'0 0.0
2018-Feb-15 08:30N 34°33' E 135°24'0 0.0
2018-Feb-15 08:00N 34°33' E 135°24'0 0.0
2018-Feb-15 07:30N 34°33' E 135°24'0 0.0
2018-Feb-15 07:01N 34°33' E 135°24'0 0.0
2018-Feb-15 06:31N 34°33' E 135°24'0 0.1
2018-Feb-15 06:00N 34°33' E 135°24'0 0.1
2018-Feb-15 05:30N 34°33' E 135°24'0 0.0
2018-Feb-15 05:00N 34°33' E 135°24'0 0.1
2018-Feb-15 04:30N 34°33' E 135°24'0 0.1
2018-Feb-15 04:00N 34°33' E 135°24'0 0.1
2018-Feb-15 03:30N 34°33' E 135°24'0 0.1
2018-Feb-15 03:00N 34°33' E 135°24'0 0.2
2018-Feb-15 02:30N 34°33' E 135°24'0 0.3
2018-Feb-15 02:00N 34°33' E 135°24'0 0.5
2018-Feb-15 01:30N 34°33' E 135°24'0 0.0
2018-Feb-15 01:00N 34°33' E 135°24'0 0.1
2018-Feb-15 00:30N 34°33' E 135°24'0 0.8
2018-Feb-15 00:00N 34°33' E 135°24'5 0.2
2018-Feb-14 02:01N 34°39' E 135°24'0 0.0
2018-Feb-14 02:00N 34°39' E 135°24'  

Dump ship's entire track history